Time;durP1;ratioP1;P1;durP2;ratioP2;P2;SDS_P1;SDS_P2;PMS_P1;PMS_P2;Temp;Humidity;BMP_temperature;BMP_pressure;BME280_temperature;BME280_humidity;BME280_pressure;Samples;Min_cycle;Max_cycle;Signal;HPM_P1;HPM_P2
2021/06/28 07:32:28;;;;;;;3.83;2.83;;;14.20;99.90;;;;;;5045932;23;20049;-88
2021/06/28 07:34:55;;;;;;;3.55;2.70;;;14.30;99.90;;;;;;4874633;29;20050;-85
2021/06/28 07:37:22;;;;;;;6.95;2.70;;;14.30;99.90;;;;;;4873297;29;20568;-86
2021/06/28 07:39:49;;;;;;;4.15;3.00;;;14.40;99.90;;;;;;4885232;29;20091;-85
2021/06/28 07:42:16;;;;;;;4.15;3.05;;;14.40;99.90;;;;;;4872794;29;20057;-86
2021/06/28 07:44:43;;;;;;;4.53;2.67;;;14.50;99.90;;;;;;4872827;29;20105;-86
2021/06/28 07:47:10;;;;;;;4.78;3.20;;;14.50;99.90;;;;;;4870559;29;20053;-84
2021/06/28 07:49:36;;;;;;;8.18;3.17;;;14.50;99.90;;;;;;4873594;29;20473;-85
2021/06/28 07:52:04;;;;;;;6.45;2.95;;;14.60;99.90;;;;;;4871092;29;20125;-85
2021/06/28 07:54:31;;;;;;;7.90;3.03;;;14.60;99.90;;;;;;4874796;29;20061;-87
2021/06/28 07:56:57;;;;;;;4.70;3.00;;;14.70;99.90;;;;;;4873824;29;20117;-85
2021/06/28 07:59:24;;;;;;;4.45;2.85;;;14.70;99.90;;;;;;4874169;29;20528;-85
2021/06/28 08:01:51;;;;;;;5.30;2.90;;;14.80;99.90;;;;;;4871125;29;20053;-85
2021/06/28 08:04:19;;;;;;;7.65;2.78;;;14.80;99.90;;;;;;4874230;29;20044;-86
2021/06/28 08:06:46;;;;;;;5.80;2.50;;;14.90;99.90;;;;;;4873980;29;20576;-86
2021/06/28 08:09:12;;;;;;;4.38;2.85;;;14.90;99.90;;;;;;4875408;29;20051;-85
2021/06/28 08:11:39;;;;;;;5.40;2.70;;;15.00;99.90;;;;;;4877307;29;20418;-85
2021/06/28 08:14:06;;;;;;;5.80;2.35;;;15.20;99.90;;;;;;4870617;29;20046;-85
2021/06/28 08:16:33;;;;;;;7.53;2.60;;;15.20;99.90;;;;;;4876782;29;20106;-88
2021/06/28 08:19:00;;;;;;;7.00;2.90;;;15.30;99.90;;;;;;4877084;29;20108;-86
2021/06/28 08:21:37;;;;;;;5.70;2.30;;;15.40;99.90;;;;;;4891105;29;20042;-86
2021/06/28 08:24:06;;;;;;;6.03;2.55;;;15.50;99.90;;;;;;4875346;29;20058;-85
2021/06/28 08:26:34;;;;;;;6.07;2.50;;;15.60;99.90;;;;;;4875226;29;20038;-87
2021/06/28 08:29:03;;;;;;;6.17;2.53;;;15.70;99.90;;;;;;4888062;29;20107;-87
2021/06/28 08:31:36;;;;;;;6.15;2.10;;;15.80;99.90;;;;;;4871842;29;20053;-87
2021/06/28 08:34:16;;;;;;;3.38;2.00;;;16.00;99.90;;;;;;4875527;29;20048;-84
2021/06/28 08:36:47;;;;;;;5.85;2.20;;;16.00;99.90;;;;;;4870678;29;20053;-86
2021/06/28 08:39:16;;;;;;;3.13;1.70;;;16.10;99.90;;;;;;4871161;29;20064;-85
2021/06/28 08:41:45;;;;;;;;;;;16.30;99.90;;;;;;4874571;29;20048;-85
2021/06/28 08:44:13;;;;;;;4.07;2.10;;;16.40;99.90;;;;;;4872358;29;19928;-87
2021/06/28 08:46:42;;;;;;;3.42;2.00;;;16.40;99.90;;;;;;4881465;29;20045;-84
2021/06/28 08:49:10;;;;;;;4.70;1.80;;;16.50;99.90;;;;;;4872443;29;20048;-87
2021/06/28 08:51:37;;;;;;;4.30;1.90;;;16.50;99.90;;;;;;4879577;29;20398;-85
2021/06/28 08:54:08;;;;;;;4.05;2.10;;;16.60;99.90;;;;;;4872650;29;20168;-87
2021/06/28 08:56:37;;;;;;;5.60;2.03;;;16.70;99.90;;;;;;4870576;29;20057;-84
2021/06/28 08:59:05;;;;;;;6.10;1.95;;;16.70;99.90;;;;;;4876174;29;20110;-85
2021/06/28 09:01:33;;;;;;;6.38;1.70;;;16.80;99.90;;;;;;4874486;29;20080;-85
2021/06/28 09:04:02;;;;;;;;;;;16.90;99.90;;;;;;4878930;29;20056;-85
2021/06/28 09:06:30;;;;;;;6.18;1.95;;;16.90;99.90;;;;;;4870847;29;20394;-85
2021/06/28 09:09:16;;;;;;;4.00;2.00;;;17.00;99.90;;;;;;4877160;29;20105;-83
2021/06/28 09:11:48;;;;;;;2.05;1.58;;;17.10;99.90;;;;;;4876588;29;20116;-86
2021/06/28 09:14:16;;;;;;;4.65;1.80;;;17.10;99.90;;;;;;4870949;29;20053;-83
2021/06/28 09:16:46;;;;;;;5.82;1.60;;;17.10;99.90;;;;;;4875097;29;20109;-83
2021/06/28 09:19:18;;;;;;;4.93;1.38;;;17.20;99.90;;;;;;4876198;29;20053;-83
2021/06/28 09:21:49;;;;;;;1.83;0.90;;;17.30;99.90;;;;;;4887559;29;20104;-84
2021/06/28 09:24:41;;;;;;;3.80;0.70;;;17.30;99.90;;;;;;4876255;29;20121;-83
2021/06/28 09:27:11;;;;;;;4.10;1.08;;;17.40;99.90;;;;;;4870827;29;20053;-85
2021/06/28 09:29:41;;;;;;;4.68;1.20;;;17.40;99.90;;;;;;4872633;29;20041;-83
2021/06/28 09:32:08;;;;;;;5.63;1.10;;;17.50;99.90;;;;;;4870654;29;20057;-84
2021/06/28 09:34:36;;;;;;;2.90;1.23;;;17.50;99.90;;;;;;4874816;29;20045;-83
2021/06/28 09:37:04;;;;;;;3.80;1.00;;;17.50;99.90;;;;;;4872430;29;20117;-83
2021/06/28 09:39:49;;;;;;;3.28;0.93;;;17.60;99.90;;;;;;4873067;29;20052;-84
2021/06/28 09:42:19;;;;;;;4.00;1.23;;;17.70;99.90;;;;;;4872776;29;20069;-87
2021/06/28 09:44:52;;;;;;;3.08;0.80;;;17.80;99.90;;;;;;4891491;29;20572;-84
2021/06/28 09:47:21;;;;;;;5.38;0.85;;;18.00;99.90;;;;;;4874098;29;20531;-84
2021/06/28 09:50:11;;;;;;;2.70;0.60;;;18.10;99.90;;;;;;4892291;29;20401;-83
2021/06/28 09:52:43;;;;;;;1.80;0.50;;;18.20;99.90;;;;;;4888312;29;20081;-84
2021/06/28 09:55:18;;;;;;;1.90;0.55;;;18.40;99.90;;;;;;4880062;29;20104;-85
2021/06/28 09:58:26;;;;;;;3.45;1.00;;;18.50;99.90;;;;;;4880480;29;20097;-84
2021/06/28 10:00:56;;;;;;;2.55;0.77;;;18.60;99.90;;;;;;4894676;29;20496;-84
2021/06/28 10:03:39;;;;;;;1.63;0.70;;;18.60;99.90;;;;;;4871211;29;20049;-85
2021/06/28 10:08:51;;;;;;;4.70;0.82;;;18.80;99.90;;;;;;4883107;29;20049;-85
2021/06/28 10:11:25;;;;;;;1.35;0.65;;;18.90;99.90;;;;;;4875308;29;20056;-83
2021/06/28 10:14:01;;;;;;;2.10;0.70;;;19.10;99.90;;;;;;4882406;29;20515;-85
2021/06/28 10:16:39;;;;;;;4.15;0.70;;;19.10;99.90;;;;;;4878198;29;20048;-82
2021/06/28 10:19:09;;;;;;;3.92;0.90;;;19.20;99.90;;;;;;4888721;29;20090;-87
2021/06/28 10:21:38;;;;;;;1.67;0.50;;;19.30;99.90;;;;;;4878139;29;20133;-84
2021/06/28 10:24:05;;;;;;;;;;;19.30;99.90;;;;;;4876244;29;20057;-83
2021/06/28 10:26:32;;;;;;;1.92;0.73;;;18.90;99.90;;;;;;4896381;29;19923;-84
2021/06/28 10:28:59;;;;;;;2.20;0.60;;;18.70;99.90;;;;;;4875232;29;20575;-85
2021/06/28 10:31:26;;;;;;;3.13;0.80;;;18.60;99.90;;;;;;4893884;29;20117;-84
2021/06/28 10:34:00;;;;;;;1.65;0.60;;;18.60;99.90;;;;;;4873884;29;20101;-84
2021/06/28 10:36:33;;;;;;;2.63;0.80;;;18.50;99.90;;;;;;4891711;29;20045;-82
2021/06/28 10:39:00;;;;;;;1.38;0.60;;;18.50;99.90;;;;;;4883822;29;20080;-85
2021/06/28 10:41:46;;;;;;;1.48;0.40;;;18.60;99.90;;;;;;4895350;29;20048;-84
2021/06/28 10:44:15;;;;;;;1.73;0.40;;;18.80;99.90;;;;;;4877104;29;20107;-86
2021/06/28 10:46:47;;;;;;;1.58;0.30;;;19.10;99.90;;;;;;4879619;29;20099;-84
2021/06/28 10:49:15;;;;;;;1.05;0.50;;;19.30;99.90;;;;;;4875872;29;20063;-82
2021/06/28 10:51:49;;;;;;;2.47;0.40;;;19.30;99.90;;;;;;4875420;29;20053;-84
2021/06/28 10:54:19;;;;;;;2.22;0.65;;;19.30;99.90;;;;;;4862476;29;20419;-83
2021/06/28 10:56:48;;;;;;;1.02;0.50;;;19.30;99.90;;;;;;4871866;29;20089;-83
2021/06/28 10:59:15;;;;;;;1.42;0.40;;;19.30;99.90;;;;;;4885856;29;20049;-85
2021/06/28 11:01:46;;;;;;;0.82;0.47;;;19.30;99.90;;;;;;4875367;29;20151;-84
2021/06/28 11:04:16;;;;;;;1.17;0.55;;;19.40;99.90;;;;;;4881288;29;20411;-83
2021/06/28 11:06:52;;;;;;;2.47;0.75;;;19.80;99.90;;;;;;4897065;29;20060;-85
2021/06/28 11:09:40;;;;;;;1.77;0.68;;;20.10;99.90;;;;;;4874624;29;20520;-84
2021/06/28 11:12:17;;;;;;;2.17;0.50;;;20.40;99.90;;;;;;4878486;29;20501;-85
2021/06/28 11:14:57;;;;;;;1.73;0.40;;;20.60;99.90;;;;;;4876001;29;20044;-84
2021/06/28 11:17:45;;;;;;;1.85;0.40;;;20.90;99.90;;;;;;4884557;29;20101;-83
2021/06/28 11:20:39;;;;;;;1.75;0.30;;;21.20;99.90;;;;;;4878828;29;20065;-85
2021/06/28 11:23:19;;;;;;;0.63;0.20;;;21.20;99.60;;;;;;4881062;29;20436;-84
2021/06/28 11:25:51;;;;;;;1.33;0.30;;;20.90;99.50;;;;;;4894382;29;20101;-83
2021/06/28 11:28:22;;;;;;;3.00;0.45;;;20.90;99.40;;;;;;4876864;29;20121;-83
2021/06/28 11:31:00;;;;;;;0.77;0.30;;;21.00;99.80;;;;;;4875126;29;20061;-83
2021/06/28 11:33:36;;;;;;;1.05;0.40;;;21.30;99.90;;;;;;4875816;29;20045;-82
2021/06/28 11:36:05;;;;;;;1.27;0.47;;;21.60;99.80;;;;;;4869615;29;20057;-83
2021/06/28 11:38:38;;;;;;;1.52;0.45;;;22.00;99.90;;;;;;4889373;29;20041;-82
2021/06/28 11:41:08;;;;;;;1.80;0.30;;;22.20;99.50;;;;;;4878370;29;20053;-83
2021/06/28 11:43:47;;;;;;;2.50;0.30;;;22.40;99.50;;;;;;4879174;29;20056;-82
2021/06/28 11:46:23;;;;;;;3.80;0.43;;;22.60;99.00;;;;;;4884021;29;20041;-82
2021/06/28 11:49:06;;;;;;;1.27;0.40;;;22.70;99.10;;;;;;4878257;29;20141;-83
2021/06/28 11:51:46;;;;;;;1.00;0.30;;;22.70;98.20;;;;;;4882166;29;20057;-82
2021/06/28 11:54:21;;;;;;;2.22;0.47;;;22.50;97.60;;;;;;4893968;29;20093;-83
2021/06/28 11:56:59;;;;;;;0.43;0.35;;;22.10;97.30;;;;;;4874830;29;20612;-83
2021/06/28 11:59:29;;;;;;;2.75;0.45;;;21.90;97.50;;;;;;4876832;29;20104;-82
2021/06/28 12:01:58;;;;;;;1.33;0.50;;;21.80;97.80;;;;;;4877932;29;20108;-82
2021/06/28 12:04:31;;;;;;;1.95;0.52;;;21.70;97.70;;;;;;4860655;29;20121;-83
2021/06/28 12:06:59;;;;;;;1.88;0.40;;;21.60;98.10;;;;;;4889260;29;20045;-83
2021/06/28 12:09:26;;;;;;;2.00;0.60;;;21.50;98.50;;;;;;4880124;29;20106;-84
2021/06/28 12:11:58;;;;;;;0.65;0.28;;;21.50;99.00;;;;;;4880936;29;20563;-82
2021/06/28 12:14:29;;;;;;;3.38;0.90;;;21.40;99.80;;;;;;4863634;29;20101;-84
2021/06/28 12:16:57;;;;;;;4.78;0.90;;;21.20;99.90;;;;;;4879600;29;20053;-84
2021/06/28 12:19:24;;;;;;;1.65;0.60;;;20.90;99.90;;;;;;4879352;29;20109;-83
2021/06/28 12:21:51;;;;;;;5.43;1.20;;;20.60;99.90;;;;;;4878544;29;20596;-83
2021/06/28 12:24:19;;;;;;;4.90;1.00;;;20.30;99.90;;;;;;4889629;29;20105;-85
2021/06/28 12:27:09;;;;;;;3.47;0.80;;;20.00;99.90;;;;;;4893686;29;20045;-86
2021/06/28 12:29:43;;;;;;;2.80;1.00;;;19.80;99.90;;;;;;4891549;29;20069;-86
2021/06/28 12:32:23;;;;;;;2.35;0.80;;;19.60;99.90;;;;;;4867645;29;20844;-84
2021/06/28 12:34:54;;;;;;;2.95;0.93;;;19.50;99.90;;;;;;4878540;29;20057;-84
2021/06/28 12:37:29;;;;;;;2.85;0.98;;;19.40;99.90;;;;;;4891104;29;20057;-83
2021/06/28 12:40:17;;;;;;;4.20;1.05;;;19.30;99.90;;;;;;4881068;29;20137;-83
2021/06/28 12:42:55;;;;;;;2.55;1.00;;;19.20;99.90;;;;;;4893764;29;20061;-85
2021/06/28 12:45:24;;;;;;;;;;;19.10;99.90;;;;;;4891813;29;20053;-83
2021/06/28 12:47:52;;;;;;;;;;;19.00;99.90;;;;;;4877700;29;19944;-83
2021/06/28 12:50:21;;;;;;;4.18;1.65;;;18.80;99.90;;;;;;4875851;29;19924;-85
2021/06/28 12:52:49;;;;;;;2.38;1.08;;;18.70;99.90;;;;;;4873019;29;20061;-85
2021/06/28 12:55:30;;;;;;;6.05;1.40;;;18.70;99.90;;;;;;4872211;29;20053;-84
2021/06/28 12:58:09;;;;;;;2.00;0.70;;;18.60;99.90;;;;;;4876507;29;20097;-84
2021/06/28 13:00:57;;;;;;;4.07;0.77;;;18.50;99.90;;;;;;4888499;29;20050;-83
2021/06/28 13:03:29;;;;;;;1.88;0.90;;;18.40;99.90;;;;;;4867352;29;20061;-82
2021/06/28 13:06:00;;;;;;;2.25;0.80;;;18.40;99.90;;;;;;4873842;29;20131;-84
2021/06/28 13:08:36;;;;;;;2.72;0.68;;;18.30;99.90;;;;;;4871397;29;20053;-84
2021/06/28 13:11:09;;;;;;;1.48;0.60;;;18.40;99.90;;;;;;4876486;29;20147;-85
2021/06/28 13:16:38;;;;;;;2.70;0.88;;;18.60;99.90;;;;;;4875402;29;20041;-84
2021/06/28 13:19:09;;;;;;;3.47;0.90;;;18.80;99.90;;;;;;4876127;29;20583;-85
2021/06/28 13:21:41;;;;;;;3.08;0.90;;;19.00;99.90;;;;;;4889884;29;20109;-87
2021/06/28 13:24:15;;;;;;;2.55;0.60;;;19.30;99.90;;;;;;4888391;29;20053;-86
2021/06/28 13:26:43;;;;;;;1.50;0.68;;;19.50;99.90;;;;;;4875777;29;20052;-85
2021/06/28 13:29:18;;;;;;;2.33;0.88;;;19.70;99.90;;;;;;4875090;29;20049;-85
2021/06/28 13:31:57;;;;;;;3.13;0.70;;;19.80;99.90;;;;;;4882949;29;20041;-87
2021/06/28 13:34:27;;;;;;;1.98;0.80;;;19.80;99.90;;;;;;4873367;29;20140;-85
2021/06/28 13:37:05;;;;;;;3.17;0.80;;;19.90;99.90;;;;;;4876444;29;20108;-85
2021/06/28 13:39:35;;;;;;;1.83;0.90;;;19.80;99.90;;;;;;4874385;29;20049;-84
2021/06/28 13:42:03;;;;;;;2.08;0.85;;;19.70;99.90;;;;;;4877477;29;20065;-84
2021/06/28 13:44:30;;;;;;;4.32;0.90;;;19.50;99.90;;;;;;4873627;29;20049;-85
2021/06/28 13:47:11;;;;;;;2.80;0.80;;;19.40;99.90;;;;;;4875852;29;20057;-84
2021/06/28 13:49:39;;;;;;;3.38;0.90;;;19.20;99.90;;;;;;4873935;29;20077;-84
2021/06/28 13:52:07;;;;;;;4.57;1.00;;;19.00;99.90;;;;;;4872036;29;20045;-86
2021/06/28 13:54:36;;;;;;;2.40;0.98;;;18.90;99.90;;;;;;4873977;29;20050;-84
2021/06/28 13:57:03;;;;;;;;;;;18.80;99.90;;;;;;4872275;29;20061;-85
2021/06/28 13:59:33;;;;;;;3.00;1.10;;;18.70;99.90;;;;;;4873762;29;19924;-86
2021/06/28 14:02:00;;;;;;;2.85;1.25;;;18.70;99.90;;;;;;4875369;29;20128;-86
2021/06/28 14:04:27;;;;;;;3.60;1.35;;;18.60;99.90;;;;;;4872938;29;20057;-85
2021/06/28 14:06:54;;;;;;;2.40;1.25;;;18.60;99.90;;;;;;4875580;29;20105;-86
2021/06/28 14:09:21;;;;;;;2.65;1.40;;;18.60;99.90;;;;;;4889749;29;20234;-84
2021/06/28 14:11:48;;;;;;;4.35;1.40;;;18.80;99.90;;;;;;4874774;29;20060;-83
2021/06/28 14:14:15;;;;;;;2.67;0.90;;;19.00;99.90;;;;;;4874439;29;20049;-85
2021/06/28 14:16:42;;;;;;;1.58;1.00;;;19.20;99.90;;;;;;4887817;29;20084;-84
2021/06/28 14:19:09;;;;;;;2.83;1.20;;;19.20;99.90;;;;;;4863767;29;20045;-86
2021/06/28 14:21:37;;;;;;;3.15;1.00;;;19.20;99.90;;;;;;4874878;29;20048;-86
2021/06/28 14:24:05;;;;;;;4.68;1.33;;;19.00;99.90;;;;;;4890908;29;20057;-83
2021/06/28 14:26:32;;;;;;;6.05;1.05;;;18.80;99.90;;;;;;4889340;29;20053;-86
2021/06/28 14:28:59;;;;;;;2.10;0.90;;;18.60;99.90;;;;;;4871729;29;20512;-84
2021/06/28 14:31:26;;;;;;;2.38;1.10;;;18.50;99.90;;;;;;4873885;29;20832;-85
2021/06/28 14:33:53;;;;;;;1.60;1.00;;;18.30;99.90;;;;;;4874215;29;20057;-85
2021/06/28 14:36:20;;;;;;;1.88;1.10;;;18.20;99.90;;;;;;4889189;29;20057;-85
2021/06/28 14:38:47;;;;;;;3.83;1.58;;;18.20;99.90;;;;;;4875773;29;20109;-85
2021/06/28 14:41:19;;;;;;;4.22;1.40;;;18.20;99.90;;;;;;4874103;29;20100;-85
2021/06/28 14:43:46;;;;;;;4.35;1.23;;;18.20;99.90;;;;;;4874346;29;20053;-86
2021/06/28 14:46:13;;;;;;;2.40;0.88;;;18.20;99.90;;;;;;4888668;29;20057;-85
2021/06/28 14:48:40;;;;;;;1.77;1.20;;;18.20;99.90;;;;;;4874743;29;20109;-85
2021/06/28 14:51:08;;;;;;;4.05;1.33;;;18.20;99.90;;;;;;4889025;29;20057;-84
2021/06/28 14:53:38;;;;;;;4.55;1.20;;;18.40;99.90;;;;;;4875006;29;20045;-85
2021/06/28 14:56:05;;;;;;;1.70;1.10;;;18.50;99.90;;;;;;4869621;29;20156;-85
2021/06/28 14:58:32;;;;;;;3.23;1.40;;;18.70;99.90;;;;;;4865990;29;20089;-86
2021/06/28 15:00:59;;;;;;;4.85;1.30;;;18.90;99.90;;;;;;4874623;29;20465;-88
2021/06/28 15:03:26;;;;;;;5.13;1.50;;;19.00;99.90;;;;;;4875491;29;20085;-86
2021/06/28 15:05:53;;;;;;;2.85;1.50;;;19.10;99.90;;;;;;4877534;29;20053;-86
2021/06/28 15:08:23;;;;;;;3.58;1.40;;;19.10;99.90;;;;;;4875070;29;20488;-85
2021/06/28 15:10:51;;;;;;;4.78;1.42;;;19.10;99.90;;;;;;4876768;29;20109;-86
2021/06/28 15:13:17;;;;;;;5.18;1.52;;;19.10;99.90;;;;;;4889862;29;20113;-86
2021/06/28 15:15:44;;;;;;;2.70;1.80;;;19.10;99.90;;;;;;4876146;29;20050;-86
2021/06/28 15:18:11;;;;;;;2.83;1.60;;;19.20;99.90;;;;;;4872431;29;20474;-83
2021/06/28 15:20:38;;;;;;;2.95;1.80;;;19.20;99.90;;;;;;4875041;29;20060;-88
2021/06/28 15:23:06;;;;;;;4.65;1.90;;;19.20;99.90;;;;;;4872651;29;20064;-87
2021/06/28 15:25:33;;;;;;;5.28;1.90;;;19.10;99.90;;;;;;4874625;29;20192;-83
2021/06/28 15:28:00;;;;;;;2.20;1.58;;;19.10;99.90;;;;;;4886760;29;20424;-84
2021/06/28 15:30:31;;;;;;;2.58;1.63;;;19.00;99.90;;;;;;4875842;29;20049;-84
2021/06/28 15:32:58;;;;;;;2.65;1.38;;;18.90;99.90;;;;;;4875143;29;20053;-85
2021/06/28 15:35:25;;;;;;;2.85;1.52;;;18.90;99.90;;;;;;4874567;29;20053;-85
2021/06/28 15:37:53;;;;;;;3.60;1.50;;;18.80;99.90;;;;;;4874429;29;20061;-85
2021/06/28 15:40:21;;;;;;;2.65;1.30;;;18.70;99.90;;;;;;4874864;29;20053;-86
2021/06/28 15:42:48;;;;;;;5.32;1.50;;;18.60;99.90;;;;;;4888730;29;20045;-85
2021/06/28 15:45:18;;;;;;;2.75;1.48;;;18.50;99.90;;;;;;4876132;29;20500;-85
2021/06/28 15:47:45;;;;;;;2.92;1.63;;;18.30;99.90;;;;;;4876259;29;20473;-85
2021/06/28 15:50:14;;;;;;;2.58;1.60;;;18.20;99.90;;;;;;4873323;29;20053;-84
2021/06/28 15:52:42;;;;;;;3.72;1.80;;;18.00;99.90;;;;;;4890155;29;20060;-83
2021/06/28 15:55:10;;;;;;;4.70;2.00;;;17.90;99.90;;;;;;4875262;29;20045;-84
2021/06/28 15:57:38;;;;;;;2.97;1.90;;;17.80;99.90;;;;;;4877565;29;20060;-84
2021/06/28 16:00:16;;;;;;;3.80;1.70;;;17.70;99.90;;;;;;4888077;29;20124;-84
2021/06/28 16:02:43;;;;;;;4.22;1.70;;;17.70;99.90;;;;;;4875338;29;20112;-84
2021/06/28 16:05:11;;;;;;;3.20;1.75;;;17.60;99.90;;;;;;4889012;29;20053;-84
2021/06/28 16:07:42;;;;;;;2.38;1.50;;;17.60;99.90;;;;;;4875819;29;20045;-84
2021/06/28 16:10:12;;;;;;;3.30;1.67;;;17.60;99.90;;;;;;4874340;29;20504;-83
2021/06/28 16:12:39;;;;;;;2.63;1.50;;;17.40;99.90;;;;;;4873572;29;20045;-83
2021/06/28 16:15:08;;;;;;;1.50;1.30;;;17.30;99.90;;;;;;4868864;29;20053;-84
2021/06/28 16:17:35;;;;;;;3.42;1.55;;;17.20;99.90;;;;;;4872307;29;20155;-84
2021/06/28 16:20:10;;;;;;;3.40;1.75;;;17.10;99.90;;;;;;4886021;29;20112;-85
2021/06/28 16:22:37;;;;;;;2.42;1.52;;;16.90;99.90;;;;;;4869113;29;20569;-83
2021/06/28 16:25:05;;;;;;;4.18;1.80;;;16.90;99.90;;;;;;4873198;29;20495;-85
2021/06/28 16:27:32;;;;;;;3.55;1.75;;;16.80;99.90;;;;;;4872432;29;20125;-84
2021/06/28 16:29:59;;;;;;;2.72;1.70;;;16.80;99.90;;;;;;4878456;29;20105;-84
2021/06/28 16:32:29;;;;;;;1.70;1.60;;;16.70;99.90;;;;;;4875999;29;20120;-83
2021/06/28 16:34:56;;;;;;;4.00;2.17;;;16.70;99.90;;;;;;4879083;29;20057;-83
2021/06/28 16:37:23;;;;;;;3.72;2.20;;;16.70;99.90;;;;;;4875779;29;20045;-85
2021/06/28 16:39:50;;;;;;;4.50;2.10;;;16.60;99.90;;;;;;4876512;29;20095;-83
2021/06/28 16:42:17;;;;;;;4.07;2.10;;;16.50;99.90;;;;;;4877559;29;20163;-84
2021/06/28 16:44:44;;;;;;;3.97;2.20;;;16.50;99.90;;;;;;4888368;29;20551;-85
2021/06/28 16:47:11;;;;;;;5.60;2.42;;;16.40;99.90;;;;;;4869642;29;20045;-83
2021/06/28 16:49:38;;;;;;;4.35;2.10;;;16.40;99.90;;;;;;4877107;29;20045;-86
2021/06/28 16:52:06;;;;;;;3.38;2.30;;;16.40;99.90;;;;;;4872891;29;20575;-85
2021/06/28 16:54:32;;;;;;;4.15;2.28;;;16.40;99.90;;;;;;4876342;29;20455;-85
2021/06/28 16:56:59;;;;;;;3.30;2.13;;;16.30;99.90;;;;;;4876773;29;20049;-84
2021/06/28 16:59:26;;;;;;;3.63;2.03;;;16.30;99.90;;;;;;4873958;29;20132;-87
2021/06/28 17:01:53;;;;;;;3.75;2.00;;;16.20;99.90;;;;;;4874759;29;20174;-87
2021/06/28 17:04:20;;;;;;;4.05;1.80;;;16.10;99.90;;;;;;4888044;29;20128;-89
2021/06/28 17:06:47;;;;;;;2.13;1.83;;;16.10;99.90;;;;;;4876127;29;20076;-87
2021/06/28 17:09:19;;;;;;;4.13;1.98;;;16.10;99.90;;;;;;4890721;29;20049;-88
2021/06/28 17:11:47;;;;;;;3.10;1.90;;;16.20;99.90;;;;;;4877610;29;20564;-88
2021/06/28 17:14:14;;;;;;;4.20;1.48;;;16.20;99.90;;;;;;4876151;29;20053;-88
2021/06/28 17:16:41;;;;;;;2.78;1.52;;;16.20;99.90;;;;;;4877143;29;20048;-89
2021/06/28 17:19:08;;;;;;;2.42;1.50;;;16.20;99.90;;;;;;4881755;29;20053;-91
2021/06/28 17:21:35;;;;;;;1.75;1.25;;;16.20;99.90;;;;;;4891729;29;20488;-86
2021/06/28 17:24:02;;;;;;;2.00;1.30;;;16.20;99.90;;;;;;4883490;29;20056;-86
2021/06/28 17:26:30;;;;;;;1.73;1.38;;;16.30;99.90;;;;;;4878189;29;20091;-89
2021/06/28 17:28:57;;;;;;;1.83;1.10;;;16.30;99.90;;;;;;4897048;29;20053;-90
2021/06/28 17:31:24;;;;;;;1.58;1.20;;;16.30;99.90;;;;;;4879250;29;20117;-88
2021/06/28 17:33:52;;;;;;;1.38;0.90;;;16.30;99.90;;;;;;4883682;29;20053;-90
2021/06/28 17:36:21;;;;;;;1.20;1.00;;;16.40;99.90;;;;;;4904021;29;20049;-87
2021/06/28 17:38:48;;;;;;;1.98;1.00;;;16.40;99.90;;;;;;4881739;29;20061;-88
2021/06/28 17:41:15;;;;;;;1.55;1.02;;;16.50;99.90;;;;;;4883654;29;20052;-88
2021/06/28 17:43:44;;;;;;;2.65;0.95;;;16.50;99.90;;;;;;4876824;29;20065;-90
2021/06/28 17:46:10;;;;;;;1.90;1.20;;;16.50;99.90;;;;;;4874785;29;20061;-92
2021/06/28 17:48:38;;;;;;;1.65;1.13;;;16.50;99.90;;;;;;4887605;29;20144;-89
2021/06/28 17:51:14;;;;;;;1.10;1.00;;;16.50;99.90;;;;;;4873558;29;20049;-89
2021/06/28 17:53:42;;;;;;;1.83;1.35;;;16.50;99.90;;;;;;4870750;29;20053;-90
2021/06/28 17:56:43;;;;;;;2.85;1.45;;;16.40;99.90;;;;;;5068050;27;20756;-88
2021/06/28 17:59:10;;;;;;;2.92;1.20;;;16.40;99.90;;;;;;5050642;28;20076;-92
2021/06/28 18:01:37;;;;;;;2.88;1.48;;;16.40;99.90;;;;;;5076979;28;20521;-86
2021/06/28 18:04:04;;;;;;;2.08;1.40;;;16.50;99.90;;;;;;5061786;28;20060;-86
2021/06/28 18:06:31;;;;;;;5.72;1.75;;;16.50;99.90;;;;;;5061799;28;20114;-89
2021/06/28 18:08:59;;;;;;;3.15;1.58;;;16.50;99.90;;;;;;5062354;28;20072;-90
2021/06/28 18:11:26;;;;;;;2.40;1.57;;;16.50;99.90;;;;;;5060556;28;20475;-87
2021/06/28 18:13:53;;;;;;;2.83;1.60;;;16.60;99.90;;;;;;5058508;28;20697;-92
2021/06/28 18:16:20;;;;;;;3.35;2.17;;;16.50;99.90;;;;;;5057297;28;20048;-88
2021/06/28 18:18:48;;;;;;;4.38;1.80;;;16.60;99.90;;;;;;5060217;28;20055;-87
2021/06/28 18:21:24;;;;;;;3.13;1.75;;;16.60;99.90;;;;;;5060791;28;20053;-89
2021/06/28 18:23:50;;;;;;;2.80;1.40;;;16.60;99.90;;;;;;5059958;28;20040;-87
2021/06/28 18:26:17;;;;;;;3.00;1.15;;;16.60;99.90;;;;;;5062434;28;20084;-89
2021/06/28 18:28:44;;;;;;;3.63;1.38;;;16.60;99.90;;;;;;5061324;28;20405;-91
2021/06/28 18:31:11;;;;;;;2.42;1.20;;;16.60;99.90;;;;;;5060353;28;20076;-88
2021/06/28 18:33:39;;;;;;;4.00;1.40;;;16.50;99.90;;;;;;5060447;28;20053;-88
2021/06/28 18:36:07;;;;;;;2.08;1.40;;;16.50;99.90;;;;;;5064030;28;20510;-89
2021/06/28 18:38:34;;;;;;;3.83;1.80;;;16.50;99.90;;;;;;5057361;28;20098;-89
2021/06/28 18:41:04;;;;;;;4.28;1.73;;;16.40;99.90;;;;;;5062671;28;20095;-91
2021/06/28 18:43:31;;;;;;;4.65;1.60;;;16.40;99.90;;;;;;5062475;28;20052;-91
2021/06/28 18:46:00;;;;;;;5.35;1.70;;;16.40;99.90;;;;;;5065024;28;20049;-89
2021/06/28 18:48:27;;;;;;;3.50;1.35;;;16.40;99.90;;;;;;5065189;28;20102;-88
2021/06/28 18:50:56;;;;;;;3.78;1.52;;;16.40;99.90;;;;;;5065502;28;20044;-89
2021/06/28 18:53:24;;;;;;;3.73;1.50;;;16.50;99.90;;;;;;5066287;28;20053;-90
2021/06/28 18:55:52;;;;;;;2.88;1.10;;;16.60;99.90;;;;;;5064618;28;20045;-91
2021/06/28 18:58:18;;;;;;;2.05;1.00;;;16.70;99.90;;;;;;5065630;28;20056;-88
2021/06/28 19:00:46;;;;;;;1.27;1.10;;;16.80;99.90;;;;;;5066104;28;20063;-90
2021/06/28 19:03:15;;;;;;;2.88;1.00;;;16.80;99.90;;;;;;5062975;28;20064;-90
2021/06/28 19:05:42;;;;;;;2.45;0.85;;;17.20;99.90;;;;;;5065350;28;20049;-91
2021/06/28 19:08:09;;;;;;;3.10;0.68;;;17.60;99.90;;;;;;5051028;28;20049;-91
2021/06/28 19:10:37;;;;;;;2.10;0.43;;;17.90;99.90;;;;;;5048060;28;20419;-92
2021/06/28 19:13:05;;;;;;;1.95;0.65;;;18.30;99.90;;;;;;5049855;28;20049;-89
2021/06/28 19:15:32;;;;;;;2.25;0.60;;;18.40;99.90;;;;;;5048939;28;20084;-92
2021/06/28 19:17:59;;;;;;;2.17;0.50;;;18.80;99.90;;;;;;5050110;28;20053;-90
2021/06/28 19:20:27;;;;;;;0.82;0.40;;;19.50;99.90;;;;;;5052522;28;20403;-90
2021/06/28 19:22:55;;;;;;;0.77;0.40;;;19.80;99.90;;;;;;5047653;28;20561;-91
2021/06/28 19:25:25;;;;;;;1.63;0.60;;;19.60;99.90;;;;;;5048378;28;20053;-91
2021/06/28 19:27:52;;;;;;;1.55;0.43;;;19.50;99.90;;;;;;5047805;28;20090;-89
2021/06/28 19:30:19;;;;;;;3.30;0.63;;;19.10;99.90;;;;;;5040932;28;20052;-88
2021/06/28 19:32:46;;;;;;;1.88;0.43;;;18.80;99.90;;;;;;5041917;28;20049;-91
2021/06/28 19:35:13;;;;;;;2.53;0.40;;;18.60;99.90;;;;;;5042202;28;20057;-90
2021/06/28 19:37:45;;;;;;;0.90;0.60;;;18.30;99.90;;;;;;5046995;28;20068;-91
2021/06/28 19:40:14;;;;;;;0.95;0.50;;;18.00;99.90;;;;;;5012954;28;20060;-92
2021/06/28 19:42:45;;;;;;;1.00;0.65;;;17.80;99.90;;;;;;5034758;28;20064;-93
2021/06/28 19:45:13;;;;;;;1.33;0.47;;;17.60;99.90;;;;;;5040698;28;20538;-93
2021/06/28 19:47:40;;;;;;;4.57;0.63;;;17.50;99.90;;;;;;5039617;28;20138;-92
2021/06/28 19:50:08;;;;;;;2.60;0.80;;;17.30;99.90;;;;;;5031536;28;20075;-89
2021/06/28 19:52:35;;;;;;;1.95;0.73;;;17.20;99.90;;;;;;5038985;28;20057;-91
2021/06/28 19:55:03;;;;;;;2.30;1.05;;;17.10;99.90;;;;;;5029096;28;20063;-91
2021/06/28 19:57:30;;;;;;;2.58;0.90;;;16.90;99.90;;;;;;5045495;28;20044;-90
2021/06/28 19:59:57;;;;;;;3.05;1.13;;;16.70;99.90;;;;;;5044296;28;20044;-92
2021/06/28 20:02:24;;;;;;;3.40;0.95;;;16.60;99.90;;;;;;5038198;28;20451;-93
2021/06/28 20:04:51;;;;;;;3.03;1.35;;;16.50;99.90;;;;;;5044252;28;20048;-93
2021/06/28 20:07:18;;;;;;;1.90;1.00;;;16.30;99.90;;;;;;5036825;28;20049;-93
2021/06/28 20:09:49;;;;;;;2.95;1.17;;;16.20;99.90;;;;;;5031367;28;20037;-90
2021/06/28 20:12:19;;;;;;;3.50;1.30;;;16.10;99.90;;;;;;5039629;28;20053;-91
2021/06/28 20:14:49;;;;;;;2.25;1.30;;;15.90;99.90;;;;;;5044518;28;20049;-92
2021/06/28 20:17:17;;;;;;;2.70;1.27;;;15.80;99.90;;;;;;5026367;28;20049;-91
2021/06/28 20:19:47;;;;;;;2.97;1.42;;;15.70;99.90;;;;;;5040010;28;20060;-94
2021/06/28 20:22:14;;;;;;;5.13;1.10;;;15.60;99.90;;;;;;5042056;28;20068;-92
2021/06/28 20:24:41;;;;;;;2.45;1.15;;;15.50;99.90;;;;;;5032631;28;20049;-91
2021/06/28 20:27:08;;;;;;;2.60;1.17;;;15.40;99.90;;;;;;5396672;22;20042;-88
2021/06/28 20:29:38;;;;;;;3.13;1.60;;;15.40;99.90;;;;;;5002405;28;20519;-88
2021/06/28 20:32:07;;;;;;;3.00;1.65;;;15.40;99.90;;;;;;4997399;28;20050;-88
2021/06/28 20:34:34;;;;;;;3.47;1.48;;;15.40;99.90;;;;;;4989197;28;20503;-91
2021/06/28 20:37:01;;;;;;;3.03;1.52;;;15.40;99.90;;;;;;4984488;28;20522;-91
2021/06/28 20:39:28;;;;;;;1.90;1.60;;;15.30;99.90;;;;;;4982228;28;20077;-89